sensor_id;sensor_type;location;lat;lon;timestamp;pressure;altitude;pressure_sealevel;temperature;humidity
68179;BME280;69812;42.632;23.440;2024-02-26T00:02:15;94668.13;;;4.07;100.00
68179;BME280;69812;42.632;23.440;2024-02-26T00:04:42;94671.97;;;4.13;100.00
68179;BME280;69812;42.632;23.440;2024-02-26T00:07:08;94675.50;;;4.23;100.00
68179;BME280;69812;42.632;23.440;2024-02-26T00:09:35;94664.66;;;4.21;100.00
68179;BME280;69812;42.632;23.440;2024-02-26T00:12:04;94675.00;;;4.18;100.00
68179;BME280;69812;42.632;23.440;2024-02-26T00:14:34;94679.38;;;4.16;100.00
68179;BME280;69812;42.632;23.440;2024-02-26T00:17:00;94674.69;;;4.23;100.00
68179;BME280;69812;42.632;23.440;2024-02-26T00:19:28;94651.78;;;3.99;100.00
68179;BME280;69812;42.632;23.440;2024-02-26T00:21:56;94651.44;;;4.16;100.00
68179;BME280;69812;42.632;23.440;2024-02-26T00:24:27;94675.28;;;4.26;100.00
68179;BME280;69812;42.632;23.440;2024-02-26T00:26:54;94669.50;;;4.24;100.00
68179;BME280;69812;42.632;23.440;2024-02-26T00:29:20;94653.75;;;4.32;100.00
68179;BME280;69812;42.632;23.440;2024-02-26T00:31:46;94652.28;;;4.41;100.00
68179;BME280;69812;42.632;23.440;2024-02-26T00:34:12;94658.31;;;4.51;100.00
68179;BME280;69812;42.632;23.440;2024-02-26T00:36:37;94650.13;;;4.47;100.00
68179;BME280;69812;42.632;23.440;2024-02-26T00:39:03;94644.44;;;4.44;100.00
68179;BME280;69812;42.632;23.440;2024-02-26T00:41:29;94651.16;;;4.45;100.00
68179;BME280;69812;42.632;23.440;2024-02-26T00:43:54;94650.41;;;4.56;99.48
68179;BME280;69812;42.632;23.440;2024-02-26T00:46:19;94639.34;;;4.44;98.28
68179;BME280;69812;42.632;23.440;2024-02-26T00:48:45;94645.56;;;4.40;98.36
68179;BME280;69812;42.632;23.440;2024-02-26T00:51:10;94650.13;;;4.47;98.71
68179;BME280;69812;42.632;23.440;2024-02-26T00:53:35;94643.03;;;4.40;99.30
68179;BME280;69812;42.632;23.440;2024-02-26T00:56:01;94648.81;;;4.42;99.64
68179;BME280;69812;42.632;23.440;2024-02-26T00:58:29;94638.84;;;4.51;99.96
68179;BME280;69812;42.632;23.440;2024-02-26T01:00:54;94627.63;;;4.54;99.25
68179;BME280;69812;42.632;23.440;2024-02-26T01:03:23;94641.00;;;4.45;99.56
68179;BME280;69812;42.632;23.440;2024-02-26T01:05:48;94632.53;;;4.44;99.92
68179;BME280;69812;42.632;23.440;2024-02-26T01:08:13;94632.00;;;4.52;99.85
68179;BME280;69812;42.632;23.440;2024-02-26T01:10:39;94616.16;;;4.48;99.96
68179;BME280;69812;42.632;23.440;2024-02-26T01:13:04;94625.28;;;4.51;100.00
68179;BME280;69812;42.632;23.440;2024-02-26T01:15:37;94621.13;;;4.50;100.00
68179;BME280;69812;42.632;23.440;2024-02-26T01:18:02;94613.56;;;4.37;100.00
68179;BME280;69812;42.632;23.440;2024-02-26T01:20:30;94619.59;;;4.36;100.00
68179;BME280;69812;42.632;23.440;2024-02-26T01:22:55;94631.63;;;4.45;100.00
68179;BME280;69812;42.632;23.440;2024-02-26T01:25:20;94620.03;;;4.65;99.58
68179;BME280;69812;42.632;23.440;2024-02-26T01:27:46;94627.78;;;4.64;99.56
68179;BME280;69812;42.632;23.440;2024-02-26T01:30:12;94623.94;;;4.58;99.53
68179;BME280;69812;42.632;23.440;2024-02-26T01:32:40;94617.94;;;4.59;99.95
68179;BME280;69812;42.632;23.440;2024-02-26T01:35:05;94620.28;;;4.62;100.00
68179;BME280;69812;42.632;23.440;2024-02-26T01:37:35;94606.50;;;4.53;100.00
68179;BME280;69812;42.632;23.440;2024-02-26T01:40:01;94611.69;;;4.52;100.00
68179;BME280;69812;42.632;23.440;2024-02-26T01:42:29;94602.56;;;4.49;100.00
68179;BME280;69812;42.632;23.440;2024-02-26T01:44:56;94602.41;;;4.51;100.00
68179;BME280;69812;42.632;23.440;2024-02-26T01:47:21;94608.47;;;4.61;100.00
68179;BME280;69812;42.632;23.440;2024-02-26T01:49:50;94607.19;;;4.56;100.00
68179;BME280;69812;42.632;23.440;2024-02-26T01:52:15;94594.50;;;4.56;99.89
68179;BME280;69812;42.632;23.440;2024-02-26T01:54:45;94600.75;;;4.63;99.57
68179;BME280;69812;42.632;23.440;2024-02-26T01:57:11;94600.03;;;4.61;99.98
68179;BME280;69812;42.632;23.440;2024-02-26T01:59:41;94587.00;;;4.65;99.74
68179;BME280;69812;42.632;23.440;2024-02-26T02:02:08;94596.56;;;4.62;99.72
68179;BME280;69812;42.632;23.440;2024-02-26T02:04:36;94594.78;;;4.51;100.00
68179;BME280;69812;42.632;23.440;2024-02-26T02:07:02;94606.88;;;4.60;100.00
68179;BME280;69812;42.632;23.440;2024-02-26T02:09:28;94610.97;;;4.50;100.00
68179;BME280;69812;42.632;23.440;2024-02-26T02:11:55;94601.97;;;4.57;100.00
68179;BME280;69812;42.632;23.440;2024-02-26T02:14:21;94594.25;;;4.59;100.00
68179;BME280;69812;42.632;23.440;2024-02-26T02:16:47;94599.44;;;4.57;100.00
68179;BME280;69812;42.632;23.440;2024-02-26T02:19:13;94589.41;;;4.56;100.00
68179;BME280;69812;42.632;23.440;2024-02-26T02:21:38;94590.91;;;4.58;100.00
68179;BME280;69812;42.632;23.440;2024-02-26T02:24:04;94601.56;;;4.63;100.00
68179;BME280;69812;42.632;23.440;2024-02-26T02:26:35;94595.50;;;4.53;100.00
68179;BME280;69812;42.632;23.440;2024-02-26T02:29:01;94577.84;;;4.51;100.00
68179;BME280;69812;42.632;23.440;2024-02-26T02:31:34;94588.13;;;4.61;100.00
68179;BME280;69812;42.632;23.440;2024-02-26T02:34:02;94584.00;;;4.60;100.00
68179;BME280;69812;42.632;23.440;2024-02-26T02:36:28;94591.31;;;4.76;100.00
68179;BME280;69812;42.632;23.440;2024-02-26T02:38:56;94614.59;;;4.94;100.00
68179;BME280;69812;42.632;23.440;2024-02-26T02:41:26;94605.38;;;5.04;98.70
68179;BME280;69812;42.632;23.440;2024-02-26T02:43:55;94592.66;;;5.15;96.74
68179;BME280;69812;42.632;23.440;2024-02-26T02:46:20;94610.25;;;5.19;96.89
68179;BME280;69812;42.632;23.440;2024-02-26T02:48:46;94602.13;;;5.02;97.54
68179;BME280;69812;42.632;23.440;2024-02-26T02:51:11;94613.47;;;5.09;96.92
68179;BME280;69812;42.632;23.440;2024-02-26T02:53:37;94609.78;;;5.13;96.90
68179;BME280;69812;42.632;23.440;2024-02-26T02:56:02;94606.31;;;5.14;97.67
68179;BME280;69812;42.632;23.440;2024-02-26T02:58:30;94594.75;;;5.10;97.08
68179;BME280;69812;42.632;23.440;2024-02-26T03:00:55;94605.75;;;5.22;96.51
68179;BME280;69812;42.632;23.440;2024-02-26T03:03:21;94609.69;;;5.26;96.28
68179;BME280;69812;42.632;23.440;2024-02-26T03:05:49;94617.31;;;5.38;95.56
68179;BME280;69812;42.632;23.440;2024-02-26T03:08:14;94607.28;;;5.25;95.64
68179;BME280;69812;42.632;23.440;2024-02-26T03:10:40;94618.59;;;5.21;95.43
68179;BME280;69812;42.632;23.440;2024-02-26T03:13:05;94616.41;;;5.27;95.40
68179;BME280;69812;42.632;23.440;2024-02-26T03:15:33;94605.38;;;5.27;94.99
68179;BME280;69812;42.632;23.440;2024-02-26T03:17:59;94614.66;;;5.28;95.14
68179;BME280;69812;42.632;23.440;2024-02-26T03:20:24;94608.44;;;5.32;94.75
68179;BME280;69812;42.632;23.440;2024-02-26T03:22:49;94612.66;;;5.20;94.69
68179;BME280;69812;42.632;23.440;2024-02-26T03:25:15;94602.13;;;5.02;95.02
68179;BME280;69812;42.632;23.440;2024-02-26T03:27:40;94607.56;;;4.98;95.77
68179;BME280;69812;42.632;23.440;2024-02-26T03:30:06;94596.84;;;5.05;95.85
68179;BME280;69812;42.632;23.440;2024-02-26T03:32:37;94599.47;;;5.04;95.92
68179;BME280;69812;42.632;23.440;2024-02-26T03:35:03;94578.28;;;4.92;97.02
68179;BME280;69812;42.632;23.440;2024-02-26T03:37:28;94587.75;;;4.90;97.91
68179;BME280;69812;42.632;23.440;2024-02-26T03:39:53;94592.75;;;4.91;98.05
68179;BME280;69812;42.632;23.440;2024-02-26T03:42:23;94596.69;;;4.96;98.13
68179;BME280;69812;42.632;23.440;2024-02-26T03:44:48;94595.69;;;5.21;96.47
68179;BME280;69812;42.632;23.440;2024-02-26T03:47:13;94599.16;;;5.20;95.78
68179;BME280;69812;42.632;23.440;2024-02-26T03:49:41;94570.22;;;4.98;95.77
68179;BME280;69812;42.632;23.440;2024-02-26T03:52:06;94602.97;;;5.14;95.21
68179;BME280;69812;42.632;23.440;2024-02-26T03:54:32;94595.50;;;4.77;96.40
68179;BME280;69812;42.632;23.440;2024-02-26T03:56:57;94599.19;;;4.84;96.66
68179;BME280;69812;42.632;23.440;2024-02-26T03:59:26;94600.94;;;4.84;96.73
68179;BME280;69812;42.632;23.440;2024-02-26T04:01:53;94586.81;;;4.80;96.93
68179;BME280;69812;42.632;23.440;2024-02-26T04:04:19;94596.56;;;4.97;97.11
68179;BME280;69812;42.632;23.440;2024-02-26T04:06:45;94595.59;;;4.76;97.73
68179;BME280;69812;42.632;23.440;2024-02-26T04:09:13;94585.13;;;4.56;98.21
68179;BME280;69812;42.632;23.440;2024-02-26T04:11:39;94588.81;;;4.52;98.99
68179;BME280;69812;42.632;23.440;2024-02-26T04:14:05;94583.03;;;4.50;99.27
68179;BME280;69812;42.632;23.440;2024-02-26T04:16:33;94583.59;;;4.78;99.00
68179;BME280;69812;42.632;23.440;2024-02-26T04:19:03;94578.00;;;4.72;98.67
68179;BME280;69812;42.632;23.440;2024-02-26T04:21:29;94586.22;;;4.76;98.68
68179;BME280;69812;42.632;23.440;2024-02-26T04:23:59;94584.84;;;4.83;97.91
68179;BME280;69812;42.632;23.440;2024-02-26T04:26:30;94582.19;;;4.73;98.03
68179;BME280;69812;42.632;23.440;2024-02-26T04:28:55;94579.94;;;4.58;98.26
68179;BME280;69812;42.632;23.440;2024-02-26T04:31:21;94582.50;;;4.58;98.78
68179;BME280;69812;42.632;23.440;2024-02-26T04:33:46;94559.19;;;4.40;98.34
68179;BME280;69812;42.632;23.440;2024-02-26T04:36:13;94586.53;;;4.60;98.97
68179;BME280;69812;42.632;23.440;2024-02-26T04:38:39;94579.13;;;4.57;98.00
68179;BME280;69812;42.632;23.440;2024-02-26T04:41:14;94580.34;;;4.40;98.18
68179;BME280;69812;42.632;23.440;2024-02-26T04:43:39;94581.56;;;4.35;98.08
68179;BME280;69812;42.632;23.440;2024-02-26T04:46:07;94591.75;;;4.35;98.68
68179;BME280;69812;42.632;23.440;2024-02-26T04:48:34;94578.72;;;4.39;99.10
68179;BME280;69812;42.632;23.440;2024-02-26T04:50:59;94580.59;;;4.24;98.87
68179;BME280;69812;42.632;23.440;2024-02-26T04:53:24;94592.88;;;4.30;99.80
68179;BME280;69812;42.632;23.440;2024-02-26T04:55:50;94591.78;;;4.22;99.74
68179;BME280;69812;42.632;23.440;2024-02-26T04:58:15;94595.38;;;4.19;100.00
68179;BME280;69812;42.632;23.440;2024-02-26T05:00:41;94591.69;;;3.99;100.00
68179;BME280;69812;42.632;23.440;2024-02-26T05:03:06;94607.00;;;3.98;100.00
68179;BME280;69812;42.632;23.440;2024-02-26T05:05:33;94600.16;;;4.11;100.00
68179;BME280;69812;42.632;23.440;2024-02-26T05:07:58;94601.63;;;4.26;100.00
68179;BME280;69812;42.632;23.440;2024-02-26T05:10:23;94607.69;;;4.37;100.00
68179;BME280;69812;42.632;23.440;2024-02-26T05:12:49;94599.41;;;4.22;100.00
68179;BME280;69812;42.632;23.440;2024-02-26T05:15:19;94606.50;;;4.29;100.00
68179;BME280;69812;42.632;23.440;2024-02-26T05:17:44;94621.94;;;4.26;100.00
68179;BME280;69812;42.632;23.440;2024-02-26T05:20:10;94614.94;;;4.30;100.00
68179;BME280;69812;42.632;23.440;2024-02-26T05:22:36;94602.56;;;4.25;100.00
68179;BME280;69812;42.632;23.440;2024-02-26T05:25:02;94631.22;;;4.27;100.00
68179;BME280;69812;42.632;23.440;2024-02-26T05:27:30;94612.81;;;4.24;100.00
68179;BME280;69812;42.632;23.440;2024-02-26T05:29:56;94624.50;;;4.26;100.00
68179;BME280;69812;42.632;23.440;2024-02-26T05:32:23;94622.56;;;4.30;100.00
68179;BME280;69812;42.632;23.440;2024-02-26T05:34:49;94618.03;;;4.33;100.00
68179;BME280;69812;42.632;23.440;2024-02-26T05:37:14;94619.63;;;4.47;100.00
68179;BME280;69812;42.632;23.440;2024-02-26T05:39:42;94616.53;;;4.55;100.00
68179;BME280;69812;42.632;23.440;2024-02-26T05:42:07;94635.56;;;4.73;100.00
68179;BME280;69812;42.632;23.440;2024-02-26T05:44:34;94643.59;;;4.91;100.00
68179;BME280;69812;42.632;23.440;2024-02-26T05:47:02;94633.75;;;4.87;100.00
68179;BME280;69812;42.632;23.440;2024-02-26T05:49:28;94641.22;;;5.01;100.00
68179;BME280;69812;42.632;23.440;2024-02-26T05:51:53;94641.22;;;5.12;100.00
68179;BME280;69812;42.632;23.440;2024-02-26T05:54:18;94637.88;;;5.12;100.00
68179;BME280;69812;42.632;23.440;2024-02-26T05:56:46;94641.00;;;5.27;100.00
68179;BME280;69812;42.632;23.440;2024-02-26T05:59:13;94636.03;;;5.14;100.00
68179;BME280;69812;42.632;23.440;2024-02-26T06:01:41;94652.25;;;5.35;100.00
68179;BME280;69812;42.632;23.440;2024-02-26T06:04:07;94648.56;;;5.40;100.00
68179;BME280;69812;42.632;23.440;2024-02-26T06:06:32;94662.13;;;5.40;99.80
68179;BME280;69812;42.632;23.440;2024-02-26T06:08:58;94669.53;;;5.54;98.23
68179;BME280;69812;42.632;23.440;2024-02-26T06:11:23;94671.06;;;5.68;97.70
68179;BME280;69812;42.632;23.440;2024-02-26T06:13:48;94661.22;;;5.75;97.68
68179;BME280;69812;42.632;23.440;2024-02-26T06:16:14;94664.47;;;5.77;97.85
68179;BME280;69812;42.632;23.440;2024-02-26T06:18:39;94667.22;;;5.85;97.58
68179;BME280;69812;42.632;23.440;2024-02-26T06:21:09;94670.63;;;5.97;97.56
68179;BME280;69812;42.632;23.440;2024-02-26T06:23:38;94644.00;;;6.01;97.38
68179;BME280;69812;42.632;23.440;2024-02-26T06:26:03;94668.03;;;6.31;96.00
68179;BME280;69812;42.632;23.440;2024-02-26T06:28:29;94666.97;;;6.45;95.62
68179;BME280;69812;42.632;23.440;2024-02-26T06:30:57;94654.91;;;6.47;94.18
68179;BME280;69812;42.632;23.440;2024-02-26T06:33:22;94661.31;;;6.73;93.10
68179;BME280;69812;42.632;23.440;2024-02-26T06:35:48;94658.41;;;6.78;91.60
68179;BME280;69812;42.632;23.440;2024-02-26T06:38:13;94667.09;;;6.75;91.29
68179;BME280;69812;42.632;23.440;2024-02-26T06:40:41;94659.94;;;6.69;91.66
68179;BME280;69812;42.632;23.440;2024-02-26T06:43:06;94658.59;;;6.86;91.15
68179;BME280;69812;42.632;23.440;2024-02-26T06:45:32;94672.38;;;6.95;90.19
68179;BME280;69812;42.632;23.440;2024-02-26T06:47:58;94648.97;;;6.90;90.20
68179;BME280;69812;42.632;23.440;2024-02-26T06:50:23;94655.81;;;7.10;89.73
68179;BME280;69812;42.632;23.440;2024-02-26T06:52:48;94657.09;;;7.16;88.94
68179;BME280;69812;42.632;23.440;2024-02-26T06:55:14;94667.22;;;7.27;89.25
68179;BME280;69812;42.632;23.440;2024-02-26T06:57:39;94670.72;;;7.47;89.52
68179;BME280;69812;42.632;23.440;2024-02-26T07:00:05;94656.19;;;7.48;89.18
68179;BME280;69812;42.632;23.440;2024-02-26T07:02:31;94658.84;;;7.67;88.64
68179;BME280;69812;42.632;23.440;2024-02-26T07:04:56;94669.38;;;7.74;87.43
68179;BME280;69812;42.632;23.440;2024-02-26T07:07:23;94666.00;;;7.73;87.50
68179;BME280;69812;42.632;23.440;2024-02-26T07:09:49;94676.97;;;7.85;86.76
68179;BME280;69812;42.632;23.440;2024-02-26T07:12:15;94684.03;;;8.02;87.38
68179;BME280;69812;42.632;23.440;2024-02-26T07:14:41;94678.09;;;8.02;86.64
68179;BME280;69812;42.632;23.440;2024-02-26T07:17:06;94684.25;;;8.30;84.77
68179;BME280;69812;42.632;23.440;2024-02-26T07:19:34;94690.00;;;8.53;84.04
68179;BME280;69812;42.632;23.440;2024-02-26T07:22:02;94682.03;;;8.56;82.92
68179;BME280;69812;42.632;23.440;2024-02-26T07:24:27;94688.28;;;8.73;83.25
68179;BME280;69812;42.632;23.440;2024-02-26T07:26:53;94688.66;;;8.69;82.55
68179;BME280;69812;42.632;23.440;2024-02-26T07:29:20;94691.25;;;9.27;80.14
68179;BME280;69812;42.632;23.440;2024-02-26T07:31:45;94675.91;;;9.37;78.00
68179;BME280;69812;42.632;23.440;2024-02-26T07:34:13;94669.94;;;9.46;79.00
68179;BME280;69812;42.632;23.440;2024-02-26T07:36:39;94679.91;;;9.49;78.52
68179;BME280;69812;42.632;23.440;2024-02-26T07:39:05;94681.34;;;9.71;78.48
68179;BME280;69812;42.632;23.440;2024-02-26T07:41:31;94679.28;;;9.84;77.67
68179;BME280;69812;42.632;23.440;2024-02-26T07:43:56;94687.00;;;10.12;76.73
68179;BME280;69812;42.632;23.440;2024-02-26T07:46:21;94688.41;;;10.34;75.16
68179;BME280;69812;42.632;23.440;2024-02-26T07:48:47;94695.63;;;10.58;72.72
68179;BME280;69812;42.632;23.440;2024-02-26T07:51:13;94669.50;;;10.63;73.01
68179;BME280;69812;42.632;23.440;2024-02-26T07:53:39;94687.84;;;10.86;71.39
68179;BME280;69812;42.632;23.440;2024-02-26T07:56:05;94681.25;;;11.01;70.62
68179;BME280;69812;42.632;23.440;2024-02-26T07:58:32;94691.59;;;11.45;70.39
68179;BME280;69812;42.632;23.440;2024-02-26T08:00:57;94675.59;;;11.86;67.74
68179;BME280;69812;42.632;23.440;2024-02-26T08:03:23;94666.88;;;12.39;63.78
68179;BME280;69812;42.632;23.440;2024-02-26T08:05:48;94680.09;;;12.36;64.35
68179;BME280;69812;42.632;23.440;2024-02-26T08:08:13;94676.28;;;12.57;66.36
68179;BME280;69812;42.632;23.440;2024-02-26T08:10:39;94676.06;;;11.55;70.01
68179;BME280;69812;42.632;23.440;2024-02-26T08:13:04;94664.47;;;11.51;71.36
68179;BME280;69812;42.632;23.440;2024-02-26T08:15:36;94669.31;;;11.54;71.02
68179;BME280;69812;42.632;23.440;2024-02-26T08:18:05;94677.84;;;11.81;69.38
68179;BME280;69812;42.632;23.440;2024-02-26T08:20:30;94672.44;;;12.18;67.63
68179;BME280;69812;42.632;23.440;2024-02-26T08:22:56;94661.66;;;12.23;68.39
68179;BME280;69812;42.632;23.440;2024-02-26T08:25:23;94668.78;;;12.29;68.36
68179;BME280;69812;42.632;23.440;2024-02-26T08:27:48;94667.22;;;12.44;65.46
68179;BME280;69812;42.632;23.440;2024-02-26T08:30:15;94673.75;;;12.81;64.86
68179;BME280;69812;42.632;23.440;2024-02-26T08:32:45;94668.03;;;13.12;65.21
68179;BME280;69812;42.632;23.440;2024-02-26T08:35:11;94650.94;;;12.86;64.20
68179;BME280;69812;42.632;23.440;2024-02-26T08:37:36;94664.31;;;13.14;62.26
68179;BME280;69812;42.632;23.440;2024-02-26T08:40:02;94657.09;;;13.34;61.09
68179;BME280;69812;42.632;23.440;2024-02-26T08:42:29;94663.50;;;13.63;61.36
68179;BME280;69812;42.632;23.440;2024-02-26T08:44:54;94661.22;;;13.76;58.47
68179;BME280;69812;42.632;23.440;2024-02-26T08:47:20;94664.44;;;13.87;60.34
68179;BME280;69812;42.632;23.440;2024-02-26T08:49:46;94662.59;;;14.51;58.88
68179;BME280;69812;42.632;23.440;2024-02-26T08:52:11;94654.91;;;14.43;59.24
68179;BME280;69812;42.632;23.440;2024-02-26T08:54:37;94654.00;;;14.67;56.78
68179;BME280;69812;42.632;23.440;2024-02-26T08:57:02;94652.72;;;14.24;57.01
68179;BME280;69812;42.632;23.440;2024-02-26T08:59:28;94659.91;;;14.76;57.38
68179;BME280;69812;42.632;23.440;2024-02-26T09:01:54;94663.94;;;14.78;57.17
68179;BME280;69812;42.632;23.440;2024-02-26T09:04:19;94667.84;;;14.74;56.83
68179;BME280;69812;42.632;23.440;2024-02-26T09:06:45;94673.75;;;14.04;56.63
68179;BME280;69812;42.632;23.440;2024-02-26T09:09:11;94656.94;;;14.16;59.95
68179;BME280;69812;42.632;23.440;2024-02-26T09:11:36;94653.59;;;14.08;57.51
68179;BME280;69812;42.632;23.440;2024-02-26T09:14:04;94650.94;;;14.24;57.62
68179;BME280;69812;42.632;23.440;2024-02-26T09:16:31;94657.38;;;14.28;59.11
68179;BME280;69812;42.632;23.440;2024-02-26T09:18:56;94656.94;;;14.64;57.98
68179;BME280;69812;42.632;23.440;2024-02-26T09:21:22;94653.19;;;14.67;56.47
68179;BME280;69812;42.632;23.440;2024-02-26T09:23:53;94656.81;;;14.81;56.31
68179;BME280;69812;42.632;23.440;2024-02-26T09:26:19;94652.81;;;14.78;55.11
68179;BME280;69812;42.632;23.440;2024-02-26T09:28:45;94643.31;;;14.31;58.07
68179;BME280;69812;42.632;23.440;2024-02-26T09:31:15;94643.91;;;14.81;56.31
68179;BME280;69812;42.632;23.440;2024-02-26T09:33:42;94633.06;;;14.85;55.12
68179;BME280;69812;42.632;23.440;2024-02-26T09:36:07;94639.97;;;15.16;55.78
68179;BME280;69812;42.632;23.440;2024-02-26T09:38:34;94642.59;;;14.85;56.10
68179;BME280;69812;42.632;23.440;2024-02-26T09:41:04;94626.00;;;15.02;54.36
68179;BME280;69812;42.632;23.440;2024-02-26T09:43:37;94634.75;;;15.39;53.84
68179;BME280;69812;42.632;23.440;2024-02-26T09:46:05;94635.72;;;13.98;54.53
68179;BME280;69812;42.632;23.440;2024-02-26T09:48:31;94642.13;;;14.10;57.95
68179;BME280;69812;42.632;23.440;2024-02-26T09:50:59;94634.47;;;14.65;56.92
68179;BME280;69812;42.632;23.440;2024-02-26T09:53:27;94647.53;;;14.94;57.16
68179;BME280;69812;42.632;23.440;2024-02-26T09:56:02;94643.00;;;14.73;53.92
68179;BME280;69812;42.632;23.440;2024-02-26T09:58:28;94640.53;;;14.80;53.96
68179;BME280;69812;42.632;23.440;2024-02-26T10:00:58;94635.31;;;14.88;55.17
68179;BME280;69812;42.632;23.440;2024-02-26T10:03:31;94638.75;;;15.27;55.30
68179;BME280;69812;42.632;23.440;2024-02-26T10:05:59;94637.28;;;15.24;53.28
68179;BME280;69812;42.632;23.440;2024-02-26T10:08:33;94631.97;;;15.03;53.59
68179;BME280;69812;42.632;23.440;2024-02-26T10:11:02;94632.81;;;14.72;55.31
68179;BME280;69812;42.632;23.440;2024-02-26T10:13:30;94640.75;;;14.93;52.32
68179;BME280;69812;42.632;23.440;2024-02-26T10:15:55;94632.03;;;14.32;53.37
68179;BME280;69812;42.632;23.440;2024-02-26T10:18:22;94628.16;;;14.36;54.98
68179;BME280;69812;42.632;23.440;2024-02-26T10:21:01;94614.88;;;14.47;53.62
68179;BME280;69812;42.632;23.440;2024-02-26T10:23:27;94621.28;;;14.51;54.09
68179;BME280;69812;42.632;23.440;2024-02-26T10:25:53;94629.41;;;14.79;53.76
68179;BME280;69812;42.632;23.440;2024-02-26T10:28:20;94612.41;;;14.23;54.65
68179;BME280;69812;42.632;23.440;2024-02-26T10:30:45;94606.28;;;13.76;57.25
68179;BME280;69812;42.632;23.440;2024-02-26T10:33:11;94598.22;;;14.50;55.44
68179;BME280;69812;42.632;23.440;2024-02-26T10:35:36;94602.53;;;14.26;54.19
68179;BME280;69812;42.632;23.440;2024-02-26T10:38:06;94597.81;;;14.92;53.96
68179;BME280;69812;42.632;23.440;2024-02-26T10:40:35;94600.28;;;15.47;51.73
68179;BME280;69812;42.632;23.440;2024-02-26T10:43:00;94594.53;;;15.74;51.53
68179;BME280;69812;42.632;23.440;2024-02-26T10:45:29;94589.72;;;14.72;51.25
68179;BME280;69812;42.632;23.440;2024-02-26T10:47:55;94603.97;;;14.29;51.97
68179;BME280;69812;42.632;23.440;2024-02-26T10:50:22;94599.06;;;13.63;54.14
68179;BME280;69812;42.632;23.440;2024-02-26T10:52:51;94602.25;;;13.82;53.40
68179;BME280;69812;42.632;23.440;2024-02-26T10:55:19;94595.44;;;13.81;53.27
68179;BME280;69812;42.632;23.440;2024-02-26T10:57:52;94587.34;;;13.92;52.59
68179;BME280;69812;42.632;23.440;2024-02-26T11:00:18;94587.66;;;13.97;52.12
68179;BME280;69812;42.632;23.440;2024-02-26T11:02:45;94588.09;;;13.61;53.37
68179;BME280;69812;42.632;23.440;2024-02-26T11:05:12;94583.91;;;13.60;53.27
68179;BME280;69812;42.632;23.440;2024-02-26T11:07:37;94586.28;;;13.70;53.41
68179;BME280;69812;42.632;23.440;2024-02-26T11:10:05;94593.25;;;13.61;54.28
68179;BME280;69812;42.632;23.440;2024-02-26T11:12:32;94582.56;;;13.81;54.99
68179;BME280;69812;42.632;23.440;2024-02-26T11:15:03;94581.28;;;14.78;53.29
68179;BME280;69812;42.632;23.440;2024-02-26T11:17:29;94566.63;;;15.32;50.31
68179;BME280;69812;42.632;23.440;2024-02-26T11:19:57;94578.44;;;15.64;48.79
68179;BME280;69812;42.632;23.440;2024-02-26T11:22:26;94578.88;;;16.12;49.95
68179;BME280;69812;42.632;23.440;2024-02-26T11:24:53;94580.22;;;16.23;48.08
68179;BME280;69812;42.632;23.440;2024-02-26T11:27:22;94582.34;;;15.45;49.10
68179;BME280;69812;42.632;23.440;2024-02-26T11:29:51;94577.56;;;16.16;47.98
68179;BME280;69812;42.632;23.440;2024-02-26T11:32:20;94581.88;;;16.31;47.65
68179;BME280;69812;42.632;23.440;2024-02-26T11:34:46;94578.97;;;16.55;47.61
68179;BME280;69812;42.632;23.440;2024-02-26T11:37:14;94567.69;;;15.23;48.18
68179;BME280;69812;42.632;23.440;2024-02-26T11:39:41;94563.97;;;14.25;49.76
68179;BME280;69812;42.632;23.440;2024-02-26T11:42:13;94565.88;;;13.60;50.85
68179;BME280;69812;42.632;23.440;2024-02-26T11:44:39;94566.69;;;14.00;50.27
68179;BME280;69812;42.632;23.440;2024-02-26T11:47:11;94557.31;;;14.38;51.35
68179;BME280;69812;42.632;23.440;2024-02-26T11:49:39;94562.91;;;13.80;52.18
68179;BME280;69812;42.632;23.440;2024-02-26T11:52:09;94562.00;;;14.04;49.79
68179;BME280;69812;42.632;23.440;2024-02-26T11:54:50;94563.81;;;14.81;48.55
68179;BME280;69812;42.632;23.440;2024-02-26T11:57:24;94566.72;;;13.92;48.80
68179;BME280;69812;42.632;23.440;2024-02-26T11:59:53;94540.72;;;14.02;48.93
68179;BME280;69812;42.632;23.440;2024-02-26T12:02:40;94546.22;;;13.51;49.92
68179;BME280;69812;42.632;23.440;2024-02-26T12:05:18;94558.44;;;13.57;49.86
68179;BME280;69812;42.632;23.440;2024-02-26T12:07:52;94546.78;;;13.30;50.36
68179;BME280;69812;42.632;23.440;2024-02-26T12:12:59;94554.69;;;14.15;51.03
68179;BME280;69812;42.632;23.440;2024-02-26T12:15:32;94547.53;;;13.94;47.95
68179;BME280;69812;42.632;23.440;2024-02-26T12:18:01;94554.41;;;13.63;49.47
68179;BME280;69812;42.632;23.440;2024-02-26T12:20:29;94559.03;;;13.84;48.37
68179;BME280;69812;42.632;23.440;2024-02-26T12:22:55;94551.28;;;13.84;48.98
68179;BME280;69812;42.632;23.440;2024-02-26T12:25:26;94554.13;;;14.28;47.62
68179;BME280;69812;42.632;23.440;2024-02-26T12:27:55;94560.56;;;14.32;47.23
68179;BME280;69812;42.632;23.440;2024-02-26T12:30:24;94558.81;;;14.25;48.87
68179;BME280;69812;42.632;23.440;2024-02-26T12:32:54;94560.75;;;14.62;47.35
68179;BME280;69812;42.632;23.440;2024-02-26T12:35:25;94551.56;;;14.60;47.89
68179;BME280;69812;42.632;23.440;2024-02-26T12:37:57;94562.00;;;15.27;45.79
68179;BME280;69812;42.632;23.440;2024-02-26T12:40:26;94562.13;;;14.73;45.87
68179;BME280;69812;42.632;23.440;2024-02-26T12:42:53;94557.16;;;14.63;46.44
68179;BME280;69812;42.632;23.440;2024-02-26T12:45:20;94557.28;;;14.70;45.85
68179;BME280;69812;42.632;23.440;2024-02-26T12:47:46;94547.94;;;14.37;46.69
68179;BME280;69812;42.632;23.440;2024-02-26T12:50:15;94551.91;;;14.48;46.21
68179;BME280;69812;42.632;23.440;2024-02-26T12:52:46;94555.03;;;14.12;48.05
68179;BME280;69812;42.632;23.440;2024-02-26T12:55:17;94552.81;;;14.64;45.97